Details for FedEx at EDDK




Go Back


Latest METAR
Local Time

EDDK 180620Z VRB01KT CAVOK 14/13 Q1023 NOSIG
18/08/2018, 08:28:45

Description
Results
FedEx Logo
Number of Pilots based at EDDK
0 Pilots Based here
Number of FedEx Flights Departed from EDDK
0 Flights Departed
Number of FedEx Flights Arrived at EDDK
0 Flights Arrived
Number of FedEx Schedules Departing from EDDK
30 Schedules
Number of FedEx Schedules Arriving at EDDK
26 Schedules
Number of FedEx Schedules Departing from EDDK availible today
3 Schedules Today
Number of FedEx Schedules Arriving at EDDK availible today
2 Schedules Today
Average Landing Rate at EDDK
-132 fpm
FedEx Average Landing Rate at EDDK
0 fpm
Total Fuel Purchased at EDDK by FedEx
0.00 kgs / 0.00 lbs

Pilots Based at EDDK


Pilot ID
Pilot Name
Pilot Rank
No. of Flights
No. of Flying Hours
There are no pilots assigned to this hub!   Will you be the first?
Content